createdAt,value
2023-02-13T00:01:31.607Z,102740.91
2023-02-13T00:04:01.263Z,102744.91
2023-02-13T00:06:29.771Z,102739.61
2023-02-13T00:08:58.203Z,102738.71
2023-02-13T00:11:27.024Z,102737.58
2023-02-13T00:13:55.997Z,102739.50
2023-02-13T00:16:24.408Z,102739.50
2023-02-13T00:18:53.109Z,102736.75
2023-02-13T00:21:22.265Z,102729.92
2023-02-13T00:23:51.212Z,102726.52
2023-02-13T00:26:19.614Z,102726.17
2023-02-13T00:28:48.270Z,102727.11
2023-02-13T00:31:19.522Z,102723.15
2023-02-13T00:33:47.941Z,102722.15
2023-02-13T00:36:19.813Z,102721.51
2023-02-13T00:38:49.632Z,102720.63
2023-02-13T00:41:21.432Z,102717.22
2023-02-13T00:43:50.197Z,102714.90
2023-02-13T00:46:19.911Z,102713.48
2023-02-13T00:48:48.268Z,102712.60
2023-02-13T00:51:17.122Z,102706.30
2023-02-13T00:53:45.859Z,102705.05
2023-02-13T00:56:14.145Z,102702.80
2023-02-13T00:58:43.487Z,102706.65
2023-02-13T01:01:12.470Z,102708.58
2023-02-13T01:03:41.439Z,102706.51
2023-02-13T01:06:10.032Z,102702.00
2023-02-13T01:08:41.971Z,102698.61
2023-02-13T01:11:10.677Z,102692.31
2023-02-13T01:13:38.964Z,102696.21
2023-02-13T01:16:08.194Z,102695.89
2023-02-13T01:18:36.390Z,102695.98
2023-02-13T01:21:08.209Z,102692.77
2023-02-13T01:23:42.936Z,102696.47
2023-02-13T01:26:18.043Z,102690.95
2023-02-13T01:28:47.393Z,102687.68
2023-02-13T01:31:19.216Z,102685.70
2023-02-13T01:33:47.850Z,102694.38
2023-02-13T01:36:16.960Z,102694.11
2023-02-13T01:38:45.249Z,102690.45
2023-02-13T01:41:15.907Z,102689.08
2023-02-13T01:43:56.458Z,102690.44
2023-02-13T01:46:39.024Z,102686.39
2023-02-13T01:49:12.712Z,102687.89
2023-02-13T01:51:43.711Z,102687.06
2023-02-13T01:54:31.528Z,102685.98
2023-02-13T01:57:05.747Z,102690.30
2023-02-13T01:59:42.961Z,102687.23
2023-02-13T02:02:12.170Z,102683.42
2023-02-13T02:04:42.741Z,102680.45
2023-02-13T02:07:20.321Z,102678.95
2023-02-13T02:09:50.386Z,102680.02
2023-02-13T02:12:47.812Z,102681.58
2023-02-13T02:15:16.852Z,102674.87
2023-02-13T02:17:45.205Z,102674.29
2023-02-13T02:20:19.754Z,102671.57
2023-02-13T02:23:21.880Z,102679.07
2023-02-13T02:25:53.441Z,102676.83
2023-02-13T02:28:58.689Z,102676.20
2023-02-13T02:32:06.617Z,102680.41
2023-02-13T02:34:40.577Z,102680.89
2023-02-13T02:37:36.527Z,102682.59
2023-02-13T02:40:42.211Z,102682.17
2023-02-13T02:43:25.777Z,102685.11
2023-02-13T02:45:54.072Z,102679.77
2023-02-13T02:49:21.758Z,102681.64
2023-02-13T02:52:16.114Z,102682.42
2023-02-13T02:55:11.176Z,102679.98
2023-02-13T02:58:26.743Z,102679.80
2023-02-13T03:01:16.473Z,102677.77
2023-02-13T03:04:06.449Z,102675.02
2023-02-13T03:06:50.714Z,102670.90
2023-02-13T03:09:50.331Z,102669.23
2023-02-13T03:12:41.900Z,102671.89
2023-02-13T03:15:11.230Z,102676.25
2023-02-13T03:17:57.913Z,102674.51
2023-02-13T03:21:27.221Z,102679.52
2023-02-13T03:24:15.712Z,102677.54
2023-02-13T03:27:06.483Z,102678.84
2023-02-13T03:30:09.977Z,102684.36
2023-02-13T03:33:06.982Z,102681.63
2023-02-13T03:36:03.820Z,102682.14
2023-02-13T03:38:42.582Z,102686.45
2023-02-13T03:41:19.774Z,102682.64
2023-02-13T03:44:07.409Z,102688.80
2023-02-13T03:46:42.221Z,102687.13
2023-02-13T03:49:50.196Z,102690.49
2023-02-13T03:52:31.484Z,102693.05
2023-02-13T03:55:23.986Z,102697.05
2023-02-13T03:58:32.542Z,102691.77
2023-02-13T04:01:05.646Z,102697.45
2023-02-13T04:03:56.605Z,102693.83
2023-02-13T04:06:32.963Z,102704.70
2023-02-13T04:09:04.977Z,102697.23
2023-02-13T04:11:54.489Z,102697.92
2023-02-13T04:14:32.769Z,102696.66
2023-02-13T04:17:16.684Z,102699.42
2023-02-13T04:19:45.474Z,102699.55
2023-02-13T04:22:14.252Z,102697.29
2023-02-13T04:24:42.805Z,102695.13
2023-02-13T04:27:16.878Z,102692.15
2023-02-13T04:29:45.194Z,102692.53
2023-02-13T04:32:15.201Z,102693.47
2023-02-13T04:34:43.970Z,102692.33
2023-02-13T04:37:13.457Z,102691.59
2023-02-13T04:39:42.233Z,102693.00
2023-02-13T04:42:10.457Z,102696.52
2023-02-13T04:44:39.651Z,102692.75
2023-02-13T04:47:07.936Z,102691.38
2023-02-13T04:49:36.598Z,102694.29
2023-02-13T04:52:07.152Z,102689.83
2023-02-13T04:54:35.463Z,102684.62
2023-02-13T04:57:04.142Z,102683.59
2023-02-13T04:59:32.577Z,102681.70
2023-02-13T05:02:01.170Z,102681.19
2023-02-13T05:04:29.439Z,102681.55
2023-02-13T05:06:58.099Z,102682.98
2023-02-13T05:09:26.393Z,102685.23
2023-02-13T05:11:55.433Z,102685.24
2023-02-13T05:14:23.818Z,102689.33
2023-02-13T05:16:52.106Z,102693.30
2023-02-13T05:19:20.559Z,102693.58
2023-02-13T05:22:07.444Z,102699.10
2023-02-13T05:24:35.951Z,102698.69
2023-02-13T05:27:04.553Z,102695.60
2023-02-13T05:29:32.880Z,102690.59
2023-02-13T05:32:04.564Z,102686.84
2023-02-13T05:34:32.962Z,102689.82
2023-02-13T05:37:01.827Z,102688.86
2023-02-13T05:39:30.502Z,102685.02
2023-02-13T05:41:59.828Z,102687.61
2023-02-13T05:44:29.276Z,102688.73
2023-02-13T05:46:57.650Z,102686.05
2023-02-13T05:49:26.232Z,102687.33
2023-02-13T05:51:54.753Z,102689.19
2023-02-13T05:54:23.416Z,102690.15
2023-02-13T05:56:52.140Z,102691.59
2023-02-13T05:59:21.441Z,102689.35
2023-02-13T06:01:51.272Z,102689.95
2023-02-13T06:04:20.192Z,102689.49
2023-02-13T06:06:48.433Z,102686.86
2023-02-13T06:09:19.874Z,102683.75
2023-02-13T06:11:48.364Z,102685.45
2023-02-13T06:14:17.243Z,102694.17
2023-02-13T06:16:45.790Z,102698.20
2023-02-13T06:19:14.350Z,102697.41
2023-02-13T06:21:42.635Z,102702.36
2023-02-13T06:24:12.390Z,102706.45
2023-02-13T06:26:40.835Z,102703.92
2023-02-13T06:29:13.133Z,102710.06
2023-02-13T06:31:41.664Z,102718.31
2023-02-13T06:34:10.365Z,102713.90
2023-02-13T06:36:38.883Z,102718.52
2023-02-13T06:39:07.120Z,102717.98
2023-02-13T06:41:35.372Z,102722.20
2023-02-13T06:44:03.524Z,102723.41
2023-02-13T06:46:31.825Z,102723.61
2023-02-13T06:49:01.350Z,102725.45
2023-02-13T06:51:31.380Z,102721.23
2023-02-13T06:54:00.014Z,102728.86
2023-02-13T06:56:28.730Z,102725.98
2023-02-13T06:59:00.131Z,102725.05
2023-02-13T07:01:28.614Z,102722.80
2023-02-13T07:03:57.110Z,102726.02
2023-02-13T07:06:25.677Z,102730.01
2023-02-13T07:08:57.445Z,102730.66
2023-02-13T07:11:25.925Z,102732.03
2023-02-13T07:13:54.705Z,102732.89
2023-02-13T07:16:23.428Z,102735.59
2023-02-13T07:18:53.483Z,102731.91
2023-02-13T07:21:21.776Z,102732.84
2023-02-13T07:23:49.965Z,102727.63
2023-02-13T07:26:18.530Z,102729.97
2023-02-13T07:28:46.847Z,102730.66
2023-02-13T07:31:15.379Z,102730.88
2023-02-13T07:33:44.495Z,102730.13
2023-02-13T07:36:13.000Z,102726.97
2023-02-13T07:38:41.754Z,102723.13
2023-02-13T07:41:09.995Z,102725.65
2023-02-13T07:43:38.454Z,102723.96
2023-02-13T07:46:07.231Z,102729.98
2023-02-13T07:48:35.966Z,102725.87
2023-02-13T07:51:06.173Z,102726.68
2023-02-13T07:53:34.612Z,102723.66
2023-02-13T07:56:10.118Z,102725.03
2023-02-13T07:58:41.900Z,102720.37
2023-02-13T08:01:12.404Z,102717.79
2023-02-13T08:03:41.227Z,102719.08
2023-02-13T08:06:10.117Z,102718.84
2023-02-13T08:08:39.627Z,102715.85
2023-02-13T08:11:43.033Z,102713.08
2023-02-13T08:14:11.179Z,102708.25
2023-02-13T08:16:39.560Z,102707.58
2023-02-13T08:19:08.036Z,102705.27
2023-02-13T08:21:38.393Z,102702.38
2023-02-13T08:24:07.606Z,102696.98
2023-02-13T08:26:36.484Z,102689.23
2023-02-13T08:29:08.652Z,102693.27
2023-02-13T08:31:38.205Z,102697.23
2023-02-13T08:34:06.483Z,102699.19
2023-02-13T08:36:34.804Z,102698.67
2023-02-13T08:39:03.593Z,102693.08
2023-02-13T08:41:35.027Z,102698.43
2023-02-13T08:44:03.349Z,102699.28
2023-02-13T08:46:31.841Z,102698.05
2023-02-13T08:49:00.671Z,102698.02
2023-02-13T08:51:33.468Z,102690.11
2023-02-13T08:54:07.318Z,102689.86
2023-02-13T08:56:35.504Z,102687.27
2023-02-13T08:59:04.219Z,102688.01
2023-02-13T09:01:32.564Z,102683.83
2023-02-13T09:04:01.293Z,102681.42
2023-02-13T09:06:30.900Z,102683.68
2023-02-13T09:08:59.434Z,102692.92
2023-02-13T09:11:27.653Z,102692.02
2023-02-13T09:13:56.591Z,102702.79
2023-02-13T09:16:25.250Z,102700.58
2023-02-13T09:18:57.379Z,102688.08
2023-02-13T09:21:26.173Z,102685.59
2023-02-13T09:23:55.637Z,102686.52
2023-02-13T09:26:24.596Z,102689.52
2023-02-13T09:28:53.048Z,102692.80
2023-02-13T09:31:22.175Z,102691.98
2023-02-13T09:33:52.470Z,102687.45
2023-02-13T09:36:24.970Z,102684.55
2023-02-13T09:38:57.833Z,102685.27
2023-02-13T09:41:33.081Z,102686.98
2023-02-13T09:44:46.311Z,102688.03
2023-02-13T09:47:38.338Z,102685.48
2023-02-13T09:50:26.004Z,102686.63
2023-02-13T09:53:00.672Z,102689.04
2023-02-13T09:55:56.708Z,102689.93
2023-02-13T09:58:40.535Z,102697.05
2023-02-13T10:01:23.875Z,102692.86
2023-02-13T10:03:58.356Z,102698.57
2023-02-13T10:06:50.897Z,102693.94
2023-02-13T10:09:44.618Z,102690.89
2023-02-13T10:12:31.156Z,102696.31
2023-02-13T10:15:02.401Z,102691.48
2023-02-13T10:17:40.127Z,102684.95
2023-02-13T10:20:25.614Z,102685.20
2023-02-13T10:23:03.471Z,102687.20
2023-02-13T10:25:49.238Z,102697.02
2023-02-13T10:28:35.941Z,102691.21
2023-02-13T10:31:10.795Z,102692.59
2023-02-13T10:33:45.817Z,102696.50
2023-02-13T10:36:25.674Z,102698.39
2023-02-13T10:39:06.394Z,102690.52
2023-02-13T10:41:53.036Z,102699.52
2023-02-13T10:44:50.060Z,102695.96
2023-02-13T10:47:59.427Z,102693.63
2023-02-13T10:50:43.050Z,102689.88
2023-02-13T10:53:20.964Z,102682.38
2023-02-13T10:55:55.534Z,102681.59
2023-02-13T10:58:47.350Z,102682.41
2023-02-13T11:01:23.136Z,102685.90
2023-02-13T11:04:08.717Z,102683.33
2023-02-13T11:06:42.823Z,102682.47
2023-02-13T11:09:15.006Z,102684.27
2023-02-13T11:11:44.360Z,102680.73
2023-02-13T11:14:24.988Z,102676.04
2023-02-13T11:17:19.500Z,102678.27
2023-02-13T11:19:54.624Z,102673.96
2023-02-13T11:22:35.991Z,102673.41
2023-02-13T11:25:19.529Z,102675.83
2023-02-13T11:27:50.449Z,102679.08
2023-02-13T11:30:37.279Z,102668.67
2023-02-13T11:33:07.326Z,102666.98
2023-02-13T11:35:37.126Z,102659.33
2023-02-13T11:38:17.865Z,102664.58
2023-02-13T11:41:04.102Z,102671.73
2023-02-13T11:43:44.780Z,102674.14
2023-02-13T11:46:23.572Z,102669.77
2023-02-13T11:48:57.879Z,102671.55
2023-02-13T11:51:47.807Z,102661.63
2023-02-13T11:54:30.851Z,102666.40
2023-02-13T11:57:17.186Z,102660.41
2023-02-13T11:59:48.412Z,102650.40
2023-02-13T12:02:29.251Z,102646.30
2023-02-13T12:05:28.441Z,102642.91
2023-02-13T12:08:01.704Z,102647.48
2023-02-13T12:10:32.939Z,102646.81
2023-02-13T12:13:39.744Z,102644.98
2023-02-13T12:16:21.690Z,102645.33
2023-02-13T12:18:59.472Z,102632.54
2023-02-13T12:21:36.300Z,102634.04
2023-02-13T12:24:52.685Z,102623.19
2023-02-13T12:27:43.773Z,102613.98
2023-02-13T12:31:01.632Z,102605.52
2023-02-13T12:33:52.261Z,102597.77
2023-02-13T12:36:46.137Z,102586.63
2023-02-13T12:39:25.690Z,102582.58
2023-02-13T12:42:07.523Z,102588.23
2023-02-13T12:44:54.105Z,102592.73
2023-02-13T12:47:30.998Z,102588.61
2023-02-13T12:50:28.731Z,102592.38
2023-02-13T12:53:09.989Z,102595.02
2023-02-13T12:55:51.686Z,102596.52
2023-02-13T12:58:50.553Z,102600.05
2023-02-13T13:01:40.438Z,102600.55
2023-02-13T13:04:37.841Z,102599.84
2023-02-13T13:07:24.567Z,102597.56
2023-02-13T13:10:11.146Z,102591.95
2023-02-13T13:13:03.833Z,102591.45
2023-02-13T13:15:47.132Z,102598.23
2023-02-13T13:18:53.838Z,102604.69
2023-02-13T13:22:09.227Z,102610.58
2023-02-13T13:24:58.589Z,102611.59
2023-02-13T13:27:32.964Z,102615.33
2023-02-13T13:30:19.309Z,102610.42
2023-02-13T13:32:55.873Z,102611.21
2023-02-13T13:35:24.584Z,102598.46
2023-02-13T13:38:06.945Z,102598.67
2023-02-13T13:40:49.701Z,102601.08
2023-02-13T13:43:24.051Z,102582.38
2023-02-13T13:46:31.301Z,102587.15
2023-02-13T13:49:27.476Z,102605.44
2023-02-13T13:52:19.554Z,102607.86
2023-02-13T13:54:54.533Z,102602.73
2023-02-13T13:57:28.081Z,102597.35
2023-02-13T14:00:00.877Z,102603.63
2023-02-13T14:02:41.458Z,102610.75
2023-02-13T14:05:33.044Z,102619.86
2023-02-13T14:08:47.518Z,102616.02
2023-02-13T14:11:30.544Z,102616.21
2023-02-13T14:13:59.639Z,102628.30
2023-02-13T14:16:42.359Z,102628.02
2023-02-13T14:19:37.905Z,102622.23
2023-02-13T14:22:25.028Z,102624.08
2023-02-13T14:25:02.223Z,102625.66
2023-02-13T14:27:37.923Z,102627.39
2023-02-13T14:30:27.160Z,102625.67
2023-02-13T14:32:56.442Z,102616.48
2023-02-13T14:35:34.248Z,102614.94
2023-02-13T14:38:08.444Z,102615.60
2023-02-13T14:40:51.049Z,102615.40
2023-02-13T14:43:24.159Z,102613.21
2023-02-13T14:46:04.432Z,102613.05
2023-02-13T14:48:40.902Z,102605.11
2023-02-13T14:51:22.252Z,102605.25
2023-02-13T14:53:59.024Z,102610.97
2023-02-13T14:56:28.566Z,102606.42
2023-02-13T14:59:10.694Z,102607.98
2023-02-13T15:01:52.678Z,102604.31
2023-02-13T15:04:35.211Z,102606.44
2023-02-13T15:07:14.501Z,102606.87
2023-02-13T15:09:55.923Z,102600.70
2023-02-13T15:12:33.360Z,102590.61
2023-02-13T15:15:03.115Z,102590.63
2023-02-13T15:17:38.673Z,102590.61
2023-02-13T15:20:19.041Z,102590.10
2023-02-13T15:22:48.146Z,102578.91
2023-02-13T15:25:33.444Z,102570.61
2023-02-13T15:28:04.396Z,102563.49
2023-02-13T15:30:39.368Z,102576.45
2023-02-13T15:33:14.533Z,102560.73
2023-02-13T15:35:43.224Z,102559.29
2023-02-13T15:38:23.926Z,102559.84
2023-02-13T15:40:55.857Z,102561.33
2023-02-13T15:43:39.726Z,102564.29
2023-02-13T15:46:40.468Z,102563.35
2023-02-13T15:49:14.377Z,102565.55
2023-02-13T15:51:43.655Z,102562.41
2023-02-13T15:54:34.811Z,102558.28
2023-02-13T15:57:06.777Z,102557.45
2023-02-13T15:59:38.206Z,102559.40
2023-02-13T16:02:15.363Z,102553.05
2023-02-13T16:04:44.318Z,102547.60
2023-02-13T16:07:14.885Z,102553.70
2023-02-13T16:09:44.695Z,102562.98
2023-02-13T16:12:27.706Z,102560.82
2023-02-13T16:15:03.153Z,102562.85
2023-02-13T16:17:37.838Z,102559.40
2023-02-13T16:20:12.301Z,102562.13
2023-02-13T16:22:44.602Z,102573.93
2023-02-13T16:25:13.204Z,102572.50
2023-02-13T16:27:47.957Z,102574.89
2023-02-13T16:30:28.151Z,102583.76
2023-02-13T16:33:14.993Z,102588.52
2023-02-13T16:35:49.405Z,102599.33
2023-02-13T16:38:33.320Z,102598.84
2023-02-13T16:41:29.236Z,102596.83
2023-02-13T16:44:02.069Z,102599.26
2023-02-13T16:46:34.151Z,102601.39
2023-02-13T16:49:06.213Z,102599.40
2023-02-13T16:51:57.922Z,102597.15
2023-02-13T16:54:34.841Z,102597.20
2023-02-13T16:57:14.673Z,102597.02
2023-02-13T16:59:48.159Z,102601.92
2023-02-13T17:02:35.080Z,102600.73
2023-02-13T17:05:09.841Z,102598.40
2023-02-13T17:07:40.678Z,102592.27
2023-02-13T17:10:18.545Z,102588.66
2023-02-13T17:12:50.669Z,102584.49
2023-02-13T17:15:22.416Z,102582.19
2023-02-13T17:17:52.199Z,102586.98
2023-02-13T17:20:27.559Z,102584.29
2023-02-13T17:22:58.297Z,102583.39
2023-02-13T17:25:31.592Z,102581.00
2023-02-13T17:28:02.982Z,102580.17
2023-02-13T17:30:34.203Z,102581.71
2023-02-13T17:33:14.319Z,102581.61
2023-02-13T17:35:43.080Z,102585.36
2023-02-13T17:38:11.676Z,102584.92
2023-02-13T17:40:42.491Z,102586.28
2023-02-13T17:43:16.462Z,102588.02
2023-02-13T17:45:50.110Z,102593.14
2023-02-13T17:48:19.081Z,102595.94
2023-02-13T17:50:49.515Z,102594.92
2023-02-13T17:53:27.484Z,102603.41
2023-02-13T17:55:56.464Z,102608.05
2023-02-13T17:58:24.986Z,102613.89
2023-02-13T18:00:53.669Z,102619.83
2023-02-13T18:03:22.852Z,102616.39
2023-02-13T18:05:51.263Z,102621.95
2023-02-13T18:08:20.732Z,102617.66
2023-02-13T18:10:49.373Z,102622.53
2023-02-13T18:13:17.955Z,102625.35
2023-02-13T18:15:46.461Z,102628.55
2023-02-13T18:18:17.280Z,102628.23
2023-02-13T18:20:46.090Z,102636.04
2023-02-13T18:23:14.663Z,102641.97
2023-02-13T18:25:43.236Z,102648.38
2023-02-13T18:28:12.536Z,102647.55
2023-02-13T18:30:43.313Z,102647.90
2023-02-13T18:33:11.665Z,102653.36
